createdAt,value
2017-10-13T00:02:35.959Z,12.00
2017-10-13T00:05:06.185Z,12.10
2017-10-13T00:07:36.020Z,12.30
2017-10-13T00:10:05.377Z,12.50
2017-10-13T00:12:34.603Z,12.50
2017-10-13T00:15:03.813Z,12.60
2017-10-13T00:17:33.033Z,12.70
2017-10-13T00:20:02.524Z,12.80
2017-10-13T00:22:32.978Z,12.90
2017-10-13T00:25:02.332Z,12.90
2017-10-13T00:27:32.085Z,12.80
2017-10-13T00:30:01.548Z,12.50
2017-10-13T00:32:31.587Z,12.50
2017-10-13T00:35:01.054Z,12.20
2017-10-13T00:37:30.449Z,12.40
2017-10-13T00:39:59.721Z,12.10
2017-10-13T00:42:29.155Z,11.90
2017-10-13T00:44:58.281Z,11.90
2017-10-13T00:47:27.823Z,12.10
2017-10-13T00:49:57.214Z,12.50
2017-10-13T00:52:26.584Z,12.40
2017-10-13T00:54:56.663Z,12.40
2017-10-13T00:57:26.106Z,12.40
2017-10-13T00:59:56.325Z,12.30
2017-10-13T01:02:26.375Z,12.30
2017-10-13T01:04:55.836Z,12.30
2017-10-13T01:07:25.234Z,12.30
2017-10-13T01:09:55.454Z,12.20
2017-10-13T01:12:24.634Z,12.10
2017-10-13T01:14:53.821Z,11.60
2017-10-13T01:17:23.266Z,11.90
2017-10-13T01:19:53.497Z,11.90
2017-10-13T01:22:23.894Z,11.80
2017-10-13T01:24:54.634Z,11.60
2017-10-13T01:27:25.241Z,11.40
2017-10-13T01:29:55.206Z,11.40
2017-10-13T01:32:24.469Z,11.10
2017-10-13T01:34:54.273Z,11.10
2017-10-13T01:37:23.487Z,10.90
2017-10-13T01:39:56.801Z,10.80
2017-10-13T01:42:26.945Z,11.00
2017-10-13T01:44:59.039Z,10.70
2017-10-13T01:47:34.562Z,10.70
2017-10-13T01:50:05.147Z,10.70
2017-10-13T01:52:34.419Z,11.00
2017-10-13T01:55:03.740Z,10.60
2017-10-13T01:57:33.058Z,10.60
2017-10-13T02:00:04.972Z,10.60
2017-10-13T02:02:35.026Z,10.50
2017-10-13T02:05:04.307Z,10.60
2017-10-13T02:07:34.569Z,10.50
2017-10-13T02:10:03.979Z,10.60
2017-10-13T02:12:34.950Z,10.60
2017-10-13T02:15:05.094Z,10.70
2017-10-13T02:17:35.455Z,10.70
2017-10-13T02:20:04.778Z,10.60
2017-10-13T02:22:34.735Z,10.70
2017-10-13T02:25:04.842Z,11.00
2017-10-13T02:27:34.001Z,10.90
2017-10-13T02:30:04.071Z,10.70
2017-10-13T02:32:34.754Z,10.70
2017-10-13T02:35:03.944Z,10.90
2017-10-13T02:37:33.186Z,10.50
2017-10-13T02:40:02.841Z,10.90
2017-10-13T02:42:32.151Z,10.60
2017-10-13T02:45:01.318Z,10.60
2017-10-13T02:47:30.841Z,10.30
2017-10-13T02:50:00.060Z,10.50
2017-10-13T02:52:29.396Z,10.60
2017-10-13T02:54:58.968Z,10.50
2017-10-13T02:57:28.615Z,10.30
2017-10-13T02:59:57.500Z,10.50
2017-10-13T03:02:26.697Z,10.30
2017-10-13T03:04:55.913Z,10.30
2017-10-13T03:07:25.520Z,10.50
2017-10-13T03:09:55.757Z,10.50
2017-10-13T03:12:25.277Z,10.50
2017-10-13T03:14:54.536Z,10.60
2017-10-13T03:17:23.798Z,10.70
2017-10-13T03:19:52.561Z,10.40
2017-10-13T03:22:21.249Z,10.40
2017-10-13T03:24:50.420Z,10.30
2017-10-13T03:27:21.561Z,10.50
2017-10-13T03:29:51.018Z,10.50
2017-10-13T03:32:21.486Z,10.20
2017-10-13T03:34:51.100Z,10.20
2017-10-13T03:37:20.238Z,10.10
2017-10-13T03:39:49.832Z,10.10
2017-10-13T03:42:19.049Z,10.20
2017-10-13T03:44:49.034Z,10.20
2017-10-13T03:47:18.461Z,10.00
2017-10-13T03:49:48.900Z,10.10
2017-10-13T03:52:17.654Z,9.90
2017-10-13T03:54:47.034Z,10.10
2017-10-13T03:57:16.158Z,9.90
2017-10-13T03:59:46.360Z,10.10
2017-10-13T04:02:16.077Z,9.80
2017-10-13T04:04:45.321Z,9.90
2017-10-13T04:07:14.901Z,10.10
2017-10-13T04:09:43.826Z,9.50
2017-10-13T04:12:14.197Z,9.70
2017-10-13T04:14:43.679Z,9.60
2017-10-13T04:17:13.835Z,10.00
2017-10-13T04:19:42.933Z,9.60
2017-10-13T04:22:12.850Z,9.70
2017-10-13T04:24:41.910Z,9.30
2017-10-13T04:27:11.106Z,9.20
2017-10-13T04:29:40.843Z,9.10
2017-10-13T04:32:10.296Z,9.30
2017-10-13T04:34:40.564Z,9.00
2017-10-13T04:37:09.550Z,9.00
2017-10-13T04:39:39.056Z,9.30
2017-10-13T04:42:08.197Z,9.00
2017-10-13T04:44:37.445Z,9.10
2017-10-13T04:47:06.853Z,9.00
2017-10-13T04:49:36.352Z,8.80
2017-10-13T04:52:05.681Z,8.80
2017-10-13T04:54:34.534Z,8.70
2017-10-13T04:57:03.212Z,8.80
2017-10-13T04:59:32.657Z,8.80
2017-10-13T05:02:01.435Z,8.70
2017-10-13T05:04:30.829Z,8.80
2017-10-13T05:07:00.038Z,8.70
2017-10-13T05:09:29.568Z,9.10
2017-10-13T05:11:59.077Z,9.10
2017-10-13T05:14:28.512Z,9.20
2017-10-13T05:16:58.036Z,9.30
2017-10-13T05:19:27.362Z,9.30
2017-10-13T05:21:56.927Z,9.50
2017-10-13T05:24:26.362Z,9.50
2017-10-13T05:26:55.606Z,9.50
2017-10-13T05:29:24.976Z,9.60
2017-10-13T05:31:54.897Z,9.70
2017-10-13T05:34:24.384Z,9.60
2017-10-13T05:36:53.866Z,9.60
2017-10-13T05:39:24.451Z,9.60
2017-10-13T05:41:53.745Z,9.70
2017-10-13T05:44:22.953Z,9.50
2017-10-13T05:46:52.381Z,9.80
2017-10-13T05:49:21.431Z,9.70
2017-10-13T05:51:50.553Z,9.60
2017-10-13T05:54:19.978Z,9.60
2017-10-13T05:56:49.111Z,9.60
2017-10-13T05:59:18.615Z,9.90
2017-10-13T06:01:48.120Z,10.20
2017-10-13T06:04:17.542Z,10.10
2017-10-13T06:06:46.838Z,10.00
2017-10-13T06:09:16.236Z,10.10
2017-10-13T06:11:45.658Z,10.40
2017-10-13T06:14:15.525Z,10.00
2017-10-13T06:16:45.648Z,10.10
2017-10-13T06:19:15.252Z,10.20
2017-10-13T06:21:44.662Z,10.10
2017-10-13T06:24:13.765Z,10.10
2017-10-13T06:26:43.381Z,9.80
2017-10-13T06:29:13.920Z,9.90
2017-10-13T06:31:44.465Z,9.80
2017-10-13T06:34:14.925Z,9.70
2017-10-13T06:36:44.309Z,9.60
2017-10-13T06:39:14.746Z,9.50
2017-10-13T06:41:44.059Z,9.50
2017-10-13T06:44:13.255Z,9.70
2017-10-13T06:46:43.355Z,9.50
2017-10-13T06:49:12.667Z,9.80
2017-10-13T06:51:41.929Z,9.60
2017-10-13T06:54:11.728Z,9.70
2017-10-13T06:56:40.972Z,9.30
2017-10-13T06:59:11.606Z,9.40
2017-10-13T07:01:40.821Z,9.50
2017-10-13T07:04:10.981Z,9.40
2017-10-13T07:06:42.359Z,9.10
2017-10-13T07:09:11.489Z,9.70
2017-10-13T07:11:41.832Z,9.40
2017-10-13T07:14:11.246Z,9.50
2017-10-13T07:16:40.591Z,9.50
2017-10-13T07:19:09.626Z,9.20
2017-10-13T07:21:39.957Z,9.50
2017-10-13T07:24:09.488Z,9.10
2017-10-13T07:26:38.993Z,9.20
2017-10-13T07:29:08.542Z,9.20
2017-10-13T07:31:37.816Z,9.20
2017-10-13T07:34:07.547Z,9.00
2017-10-13T07:36:37.899Z,9.00
2017-10-13T07:39:07.572Z,9.20
2017-10-13T07:41:36.967Z,9.10
2017-10-13T07:44:06.512Z,9.10
2017-10-13T07:46:35.963Z,9.10
2017-10-13T07:49:05.041Z,9.30
2017-10-13T07:51:34.257Z,9.10
2017-10-13T07:54:03.594Z,9.10
2017-10-13T07:56:32.443Z,9.20
2017-10-13T07:59:02.007Z,9.10
2017-10-13T08:01:31.639Z,9.20
2017-10-13T08:04:00.962Z,9.20
2017-10-13T08:06:30.406Z,9.20
2017-10-13T08:08:59.630Z,9.20
2017-10-13T08:11:28.768Z,9.10
2017-10-13T08:13:58.252Z,9.10
2017-10-13T08:16:27.388Z,9.20
2017-10-13T08:18:56.665Z,9.10
2017-10-13T08:21:26.017Z,9.10
2017-10-13T08:23:55.544Z,9.20
2017-10-13T08:26:25.086Z,9.10
2017-10-13T08:28:54.475Z,8.80
2017-10-13T08:31:23.954Z,9.00
2017-10-13T08:33:53.190Z,9.00
2017-10-13T08:36:22.854Z,8.80
2017-10-13T08:38:53.638Z,9.00
2017-10-13T08:41:22.844Z,8.80
2017-10-13T08:43:52.006Z,8.70
2017-10-13T08:46:21.256Z,8.70
2017-10-13T08:48:50.697Z,8.70
2017-10-13T08:51:20.344Z,8.60
2017-10-13T08:53:50.045Z,8.40
2017-10-13T08:56:19.484Z,8.60
2017-10-13T08:58:48.740Z,8.40
2017-10-13T09:01:18.238Z,8.40
2017-10-13T09:03:47.692Z,8.50
2017-10-13T09:06:17.112Z,8.30
2017-10-13T09:08:46.649Z,8.50
2017-10-13T09:11:15.929Z,8.30
2017-10-13T09:13:45.224Z,8.30
2017-10-13T09:16:14.502Z,8.40
2017-10-13T09:18:43.862Z,8.10
2017-10-13T09:21:13.704Z,8.10
2017-10-13T09:23:43.150Z,8.10
2017-10-13T09:26:12.900Z,8.00
2017-10-13T09:28:42.217Z,8.00
2017-10-13T09:31:11.377Z,8.20
2017-10-13T09:33:40.983Z,8.10
2017-10-13T09:36:10.221Z,8.20
2017-10-13T09:38:40.825Z,8.00
2017-10-13T09:41:10.841Z,8.10
2017-10-13T09:43:40.522Z,8.10
2017-10-13T09:46:09.978Z,7.90
2017-10-13T09:48:39.357Z,8.00
2017-10-13T09:51:08.907Z,8.00
2017-10-13T09:53:38.484Z,7.80
2017-10-13T09:56:08.044Z,8.00
2017-10-13T09:58:37.312Z,7.80
2017-10-13T10:01:06.968Z,8.00
2017-10-13T10:03:36.507Z,8.10
2017-10-13T10:06:05.781Z,8.00
2017-10-13T10:08:35.028Z,8.00
2017-10-13T10:11:04.121Z,7.90
2017-10-13T10:13:33.555Z,8.00
2017-10-13T10:16:06.661Z,8.10
2017-10-13T10:18:36.078Z,8.00
2017-10-13T10:21:05.654Z,7.80
2017-10-13T10:23:35.222Z,7.80
2017-10-13T10:26:04.738Z,8.00
2017-10-13T10:28:34.145Z,8.00
2017-10-13T10:31:03.452Z,7.60
2017-10-13T10:33:34.380Z,8.00
2017-10-13T10:36:03.666Z,8.00
2017-10-13T10:38:33.150Z,8.10
2017-10-13T10:41:02.621Z,8.10
2017-10-13T10:43:33.182Z,8.00
2017-10-13T10:46:02.770Z,8.10
2017-10-13T10:48:32.865Z,8.00
2017-10-13T10:51:02.214Z,8.20
2017-10-13T10:53:31.523Z,8.00
2017-10-13T10:56:00.841Z,8.10
2017-10-13T10:58:30.374Z,8.20
2017-10-13T11:00:59.967Z,8.00
2017-10-13T11:03:29.427Z,8.10
2017-10-13T11:05:58.838Z,7.90
2017-10-13T11:08:28.237Z,8.10
2017-10-13T11:10:57.575Z,8.10
2017-10-13T11:13:26.846Z,8.10
2017-10-13T11:15:56.283Z,8.10
2017-10-13T11:18:25.657Z,8.00
2017-10-13T11:20:55.019Z,8.10
2017-10-13T11:23:24.685Z,8.00
2017-10-13T11:25:54.201Z,8.10
2017-10-13T11:28:23.908Z,7.60
2017-10-13T11:30:53.175Z,8.10
2017-10-13T11:33:22.688Z,8.10
2017-10-13T11:35:51.748Z,7.90
2017-10-13T11:38:21.038Z,8.10
2017-10-13T11:40:50.651Z,8.10
2017-10-13T11:43:19.948Z,7.90
2017-10-13T11:45:50.143Z,8.10
2017-10-13T11:48:19.194Z,7.80
2017-10-13T11:50:48.610Z,8.00
2017-10-13T11:53:17.980Z,8.00
2017-10-13T11:55:47.621Z,8.00
2017-10-13T11:58:16.931Z,7.90
2017-10-13T12:00:46.410Z,7.90
2017-10-13T12:03:15.495Z,8.10
2017-10-13T12:05:45.615Z,8.00
2017-10-13T12:08:15.666Z,7.90
2017-10-13T12:10:45.428Z,8.10
2017-10-13T12:13:14.860Z,8.00
2017-10-13T12:15:44.394Z,8.00
2017-10-13T12:18:13.439Z,8.10
2017-10-13T12:20:43.568Z,7.70
2017-10-13T12:23:13.888Z,8.00
2017-10-13T12:25:43.451Z,8.00
2017-10-13T12:28:12.675Z,7.90
2017-10-13T12:30:41.949Z,7.70
2017-10-13T12:33:11.280Z,8.00
2017-10-13T12:35:40.877Z,7.80
2017-10-13T12:38:10.039Z,7.70
2017-10-13T12:40:39.457Z,7.70
2017-10-13T12:43:09.025Z,7.70
2017-10-13T12:45:38.737Z,7.70
2017-10-13T12:48:09.274Z,7.80
2017-10-13T12:50:38.875Z,7.70
2017-10-13T12:53:08.146Z,8.10
2017-10-13T12:55:38.692Z,8.10
2017-10-13T12:58:09.150Z,7.90
2017-10-13T13:00:38.813Z,8.10
2017-10-13T13:03:09.408Z,8.00
2017-10-13T13:05:38.971Z,8.10
2017-10-13T13:08:08.470Z,8.00
2017-10-13T13:10:38.024Z,8.00
2017-10-13T13:13:07.693Z,8.00
2017-10-13T13:15:37.163Z,8.30
2017-10-13T13:18:06.321Z,8.10
2017-10-13T13:20:35.893Z,8.10
2017-10-13T13:23:05.587Z,8.00
2017-10-13T13:25:34.996Z,8.30
2017-10-13T13:28:04.610Z,8.20
2017-10-13T13:30:34.273Z,8.10
2017-10-13T13:33:03.532Z,7.90
2017-10-13T13:35:32.934Z,8.40
2017-10-13T13:38:02.398Z,8.20
2017-10-13T13:40:31.822Z,8.40
2017-10-13T13:43:01.355Z,8.30
2017-10-13T13:45:30.872Z,8.40
2017-10-13T13:48:00.218Z,8.00
2017-10-13T13:50:30.983Z,8.00
2017-10-13T13:53:01.003Z,8.10
2017-10-13T13:55:30.165Z,7.90
2017-10-13T13:57:59.638Z,8.10
2017-10-13T14:00:29.089Z,8.30
2017-10-13T14:02:58.355Z,7.90
2017-10-13T14:05:27.744Z,8.40
2017-10-13T14:07:57.185Z,8.10
2017-10-13T14:10:26.554Z,8.30
2017-10-13T14:12:56.398Z,8.00
2017-10-13T14:15:25.863Z,8.30
2017-10-13T14:17:55.288Z,8.30
2017-10-13T14:20:24.945Z,8.30
2017-10-13T14:22:54.543Z,8.40
2017-10-13T14:25:24.229Z,8.40
2017-10-13T14:27:53.789Z,8.30
2017-10-13T14:30:23.114Z,8.40
2017-10-13T14:32:52.817Z,8.30
2017-10-13T14:35:22.423Z,8.40
2017-10-13T14:37:51.751Z,8.40
2017-10-13T14:40:21.640Z,8.40
2017-10-13T14:42:50.951Z,8.30
2017-10-13T14:45:20.302Z,8.40
2017-10-13T14:47:49.943Z,8.50
2017-10-13T14:50:19.477Z,8.50
2017-10-13T14:52:49.732Z,8.50
2017-10-13T14:55:18.880Z,8.40
2017-10-13T14:57:48.398Z,8.30
2017-10-13T15:00:17.667Z,8.50
2017-10-13T15:02:46.837Z,8.60
2017-10-13T15:05:17.059Z,8.80
2017-10-13T15:07:46.247Z,8.30
2017-10-13T15:10:15.692Z,8.90
2017-10-13T15:12:44.796Z,8.70
2017-10-13T15:15:14.194Z,8.90
2017-10-13T15:17:43.532Z,9.00
2017-10-13T15:20:12.912Z,9.10
2017-10-13T15:22:42.175Z,9.30
2017-10-13T15:25:18.057Z,9.20
2017-10-13T15:27:53.422Z,9.20
2017-10-13T15:30:28.121Z,9.20
2017-10-13T15:33:03.123Z,9.70
2017-10-13T15:35:37.658Z,9.20
2017-10-13T15:38:12.794Z,9.20
2017-10-13T15:40:48.038Z,9.60
2017-10-13T15:43:24.118Z,10.50
2017-10-13T15:45:59.213Z,9.90
2017-10-13T15:48:28.498Z,10.60
2017-10-13T15:51:03.415Z,10.80
2017-10-13T15:53:33.909Z,10.60
2017-10-13T15:56:03.149Z,10.50
2017-10-13T15:58:33.337Z,10.90
2017-10-13T16:01:02.460Z,10.60
2017-10-13T16:03:31.693Z,10.70
2017-10-13T16:06:01.242Z,11.00
2017-10-13T16:08:30.692Z,10.90
2017-10-13T16:11:00.072Z,11.00
2017-10-13T16:13:29.594Z,10.80
2017-10-13T16:15:58.945Z,10.80
2017-10-13T16:18:28.137Z,10.90
2017-10-13T16:20:57.501Z,10.90
2017-10-13T16:23:26.817Z,10.80
2017-10-13T16:25:55.970Z,11.00
2017-10-13T16:28:25.296Z,10.90
2017-10-13T16:30:54.417Z,11.00
2017-10-13T16:33:23.821Z,10.90
2017-10-13T16:35:53.012Z,11.00
2017-10-13T16:38:22.380Z,11.30
2017-10-13T16:40:51.617Z,11.60
2017-10-13T16:43:21.174Z,11.90
2017-10-13T16:45:50.313Z,12.10
2017-10-13T16:48:19.644Z,12.20
2017-10-13T16:50:49.992Z,12.90
2017-10-13T16:53:19.506Z,12.90
2017-10-13T16:55:49.720Z,13.20
2017-10-13T16:58:19.088Z,13.40
2017-10-13T17:00:48.595Z,13.80
2017-10-13T17:03:18.303Z,14.30
2017-10-13T17:05:50.660Z,14.80
2017-10-13T17:08:19.944Z,15.00
2017-10-13T17:10:49.324Z,15.10
2017-10-13T17:13:18.805Z,15.20
2017-10-13T17:15:48.581Z,15.30
2017-10-13T17:18:18.056Z,15.20
2017-10-13T17:20:47.359Z,14.90
2017-10-13T17:23:16.741Z,14.70
2017-10-13T17:25:46.379Z,14.60
2017-10-13T17:28:15.920Z,14.60
2017-10-13T17:30:45.508Z,14.50
2017-10-13T17:33:15.000Z,14.40
2017-10-13T17:35:44.086Z,14.30
2017-10-13T17:38:13.655Z,14.40
2017-10-13T17:40:43.191Z,14.30
2017-10-13T17:43:12.288Z,14.20
2017-10-13T17:45:41.927Z,14.30
2017-10-13T17:48:11.033Z,14.30
2017-10-13T17:50:41.099Z,14.10
2017-10-13T17:53:10.561Z,14.10
2017-10-13T17:55:40.801Z,14.10
2017-10-13T17:58:11.077Z,14.10
2017-10-13T18:00:40.330Z,14.40
2017-10-13T18:03:09.624Z,14.00
2017-10-13T18:05:39.669Z,14.00
2017-10-13T18:08:08.987Z,14.00
2017-10-13T18:10:38.567Z,14.10
2017-10-13T18:13:07.878Z,14.20
2017-10-13T18:15:37.438Z,14.30
2017-10-13T18:18:07.511Z,14.50
2017-10-13T18:20:36.854Z,14.50
2017-10-13T18:23:07.064Z,14.30
2017-10-13T18:25:36.314Z,14.40
2017-10-13T18:28:06.027Z,14.40
2017-10-13T18:30:35.234Z,14.40
2017-10-13T18:33:04.517Z,14.50
2017-10-13T18:35:33.701Z,14.50
2017-10-13T18:38:03.004Z,14.60
2017-10-13T18:40:32.395Z,14.70
2017-10-13T18:43:01.537Z,14.70
2017-10-13T18:45:30.999Z,14.50
2017-10-13T18:48:00.524Z,14.30
2017-10-13T18:50:29.778Z,14.20
2017-10-13T18:52:59.196Z,14.30
2017-10-13T18:55:28.335Z,14.30
2017-10-13T18:57:57.281Z,14.20
2017-10-13T19:00:27.449Z,14.20
2017-10-13T19:02:56.678Z,14.10
2017-10-13T19:05:26.102Z,14.00
2017-10-13T19:08:02.508Z,14.20
2017-10-13T19:10:31.756Z,14.30
2017-10-13T19:13:01.086Z,14.00
2017-10-13T19:15:31.230Z,13.80
2017-10-13T19:18:00.637Z,13.80
2017-10-13T19:20:30.176Z,13.80
2017-10-13T19:22:59.541Z,13.60
2017-10-13T19:25:28.789Z,13.40
2017-10-13T19:27:57.652Z,13.30
2017-10-13T19:30:27.105Z,13.40
2017-10-13T19:32:57.231Z,13.50
2017-10-13T19:35:26.368Z,13.30
2017-10-13T19:37:55.709Z,13.30
2017-10-13T19:40:25.004Z,13.30
2017-10-13T19:42:54.103Z,13.20
2017-10-13T19:45:23.680Z,13.10
2017-10-13T19:47:52.978Z,13.00
2017-10-13T19:50:22.318Z,13.00
2017-10-13T19:52:51.649Z,13.00
2017-10-13T19:55:21.112Z,12.90
2017-10-13T19:57:50.184Z,12.90
2017-10-13T20:00:20.133Z,12.60
2017-10-13T20:02:50.405Z,12.50
2017-10-13T20:05:19.757Z,12.60
2017-10-13T20:07:49.114Z,12.60
2017-10-13T20:10:18.539Z,12.60
2017-10-13T20:12:48.072Z,12.60
2017-10-13T20:15:17.551Z,12.70
2017-10-13T20:17:47.037Z,12.70
2017-10-13T20:20:16.940Z,12.70
2017-10-13T20:22:46.215Z,12.80
2017-10-13T20:25:15.703Z,13.10
2017-10-13T20:27:45.853Z,13.00
2017-10-13T20:30:15.468Z,13.00
2017-10-13T20:32:44.652Z,13.10
2017-10-13T20:35:13.684Z,13.10
2017-10-13T20:37:42.986Z,13.30
2017-10-13T20:40:12.197Z,13.50
2017-10-13T20:42:42.827Z,13.50
2017-10-13T20:45:12.287Z,13.60
2017-10-13T20:47:42.366Z,13.70
2017-10-13T20:50:11.893Z,13.60
2017-10-13T20:52:41.302Z,14.10
2017-10-13T20:55:10.512Z,13.80
2017-10-13T20:57:40.145Z,13.70
2017-10-13T21:00:09.457Z,13.60
2017-10-13T21:02:38.820Z,13.70
2017-10-13T21:05:08.840Z,13.70
2017-10-13T21:07:38.143Z,13.90
2017-10-13T21:10:08.198Z,13.90
2017-10-13T21:12:37.321Z,13.90
2017-10-13T21:15:06.466Z,13.80
2017-10-13T21:17:35.914Z,13.40
2017-10-13T21:20:05.218Z,13.00
2017-10-13T21:22:34.507Z,12.60
2017-10-13T21:25:03.690Z,12.60
2017-10-13T21:27:33.149Z,12.60
2017-10-13T21:30:03.086Z,12.60
2017-10-13T21:32:32.184Z,12.60
2017-10-13T21:35:01.219Z,12.50
2017-10-13T21:37:30.723Z,12.30
2017-10-13T21:39:59.718Z,12.30
2017-10-13T21:42:28.906Z,12.40
2017-10-13T21:44:58.235Z,12.30
2017-10-13T21:47:27.388Z,12.20
2017-10-13T21:49:56.495Z,11.90
2017-10-13T21:52:25.833Z,11.70
2017-10-13T21:54:54.944Z,11.70
2017-10-13T21:57:25.027Z,11.30
2017-10-13T21:59:54.188Z,11.60
2017-10-13T22:02:23.694Z,11.50
2017-10-13T22:04:58.908Z,11.50
2017-10-13T22:07:30.193Z,11.70
2017-10-13T22:09:59.625Z,11.60
2017-10-13T22:12:28.803Z,11.90
2017-10-13T22:14:58.182Z,11.70
2017-10-13T22:17:30.386Z,11.90
2017-10-13T22:19:59.921Z,12.10
2017-10-13T22:22:29.077Z,12.00
2017-10-13T22:24:58.242Z,12.00
2017-10-13T22:27:27.465Z,12.00
2017-10-13T22:29:56.690Z,12.20
2017-10-13T22:32:25.948Z,12.10
2017-10-13T22:34:55.343Z,12.40
2017-10-13T22:37:24.677Z,12.50
2017-10-13T22:39:53.890Z,12.60
2017-10-13T22:42:23.237Z,12.60
2017-10-13T22:44:52.687Z,12.50
2017-10-13T22:47:22.060Z,12.30
2017-10-13T22:49:51.340Z,12.20
2017-10-13T22:52:21.157Z,12.10
2017-10-13T22:54:50.650Z,12.20
2017-10-13T22:57:20.808Z,12.20
2017-10-13T22:59:50.133Z,12.50
2017-10-13T23:02:19.505Z,12.30
2017-10-13T23:04:48.961Z,12.40
2017-10-13T23:07:18.036Z,12.40
2017-10-13T23:09:48.247Z,12.40
2017-10-13T23:12:17.660Z,12.50
2017-10-13T23:14:46.964Z,12.50
2017-10-13T23:17:16.099Z,12.40
2017-10-13T23:19:45.438Z,12.50
2017-10-13T23:22:14.868Z,12.50
2017-10-13T23:24:44.287Z,12.50
2017-10-13T23:27:14.038Z,12.70
2017-10-13T23:29:43.182Z,12.70
2017-10-13T23:32:12.448Z,12.80
2017-10-13T23:34:42.067Z,13.00
2017-10-13T23:37:11.219Z,13.10
2017-10-13T23:39:41.360Z,13.00
2017-10-13T23:42:10.885Z,12.90
2017-10-13T23:44:40.866Z,12.90
